Time;durP1;ratioP1;P1;durP2;ratioP2;P2;SDS_P1;SDS_P2;PMS_P1;PMS_P2;Temp;Humidity;BMP_temperature;BMP_pressure;BME280_temperature;BME280_humidity;BME280_pressure;Samples;Min_cycle;Max_cycle;Signal;HPM_P1;HPM_P2
2021/10/18 00:00:17;;;;;;;2.80;1.43;;;;;;;3.37;73.72;100134.22;5016389;28;20030;-65
2021/10/18 00:02:42;;;;;;;7.77;1.97;;;;;;;3.17;74.80;100104.34;5016411;28;20289;-69
2021/10/18 00:05:09;;;;;;;3.27;1.30;;;;;;;3.41;74.93;100144.34;5016420;28;20271;-69
2021/10/18 00:07:35;;;;;;;2.63;1.43;;;;;;;3.42;74.82;100132.84;5016018;28;20038;-65
2021/10/18 00:10:00;;;;;;;3.20;1.50;;;;;;;3.59;74.88;100138.47;5016050;28;20263;-67
2021/10/18 00:12:26;;;;;;;3.07;1.50;;;;;;;3.60;74.68;100129.59;5016191;28;20042;-71
2021/10/18 00:14:52;;;;;;;2.03;1.40;;;;;;;3.45;73.61;100094.06;5014807;28;20049;-69
2021/10/18 00:17:17;;;;;;;3.73;1.93;;;;;;;3.78;73.62;100135.91;5015938;28;20289;-67
2021/10/18 00:19:43;;;;;;;7.17;1.80;;;;;;;3.84;74.32;100127.47;5015634;28;20409;-66
2021/10/18 00:22:08;;;;;;;1.50;1.27;;;;;;;3.93;74.17;100141.63;5015828;28;20064;-67
2021/10/18 00:24:34;;;;;;;3.47;1.57;;;;;;;3.97;73.53;100133.31;5014495;28;20038;-64
2021/10/18 00:26:59;;;;;;;2.30;1.23;;;;;;;3.97;73.30;100132.47;5016215;28;20041;-66
2021/10/18 00:29:24;;;;;;;2.53;1.37;;;;;;;4.08;73.48;100139.44;5015951;28;20409;-68
2021/10/18 00:31:50;;;;;;;2.20;1.10;;;;;;;4.04;73.30;100126.53;5015529;28;20037;-65
2021/10/18 00:34:15;;;;;;;2.50;1.40;;;;;;;4.13;72.63;100131.97;5014358;28;20073;-67
2021/10/18 00:36:40;;;;;;;1.60;1.33;;;;;;;4.09;72.64;100122.66;5015598;28;20452;-69
2021/10/18 00:39:06;;;;;;;3.33;1.53;;;;;;;4.08;72.39;100128.91;5015634;28;20045;-67
2021/10/18 00:41:32;;;;;;;1.47;1.00;;;;;;;4.04;73.01;100110.72;5015403;28;20042;-68
2021/10/18 00:43:57;;;;;;;6.00;1.10;;;;;;;4.09;72.80;100130.56;5015491;28;20034;-67
2021/10/18 00:46:24;;;;;;;2.10;1.33;;;;;;;4.04;73.18;100123.06;5015211;28;20037;-66
2021/10/18 00:48:54;;;;;;;1.83;1.27;;;;;;;4.10;72.79;100132.25;5015277;28;20741;-68
2021/10/18 00:51:26;;;;;;;3.17;1.30;;;;;;;4.13;72.49;100122.25;5015412;28;20358;-65
2021/10/18 00:53:54;;;;;;;1.93;1.50;;;;;;;4.04;73.03;100131.78;5015156;28;20265;-70
2021/10/18 00:56:20;;;;;;;1.73;1.55;;;;;;;3.97;73.08;100122.78;5014958;28;20846;-68
2021/10/18 00:58:47;;;;;;;1.97;1.37;;;;;;;4.00;73.28;100121.66;5014965;28;20110;-65
2021/10/18 01:01:13;;;;;;;2.23;1.50;;;;;;;3.99;73.07;100125.28;5014788;28;20279;-68
2021/10/18 01:03:39;;;;;;;3.80;1.93;;;;;;;3.87;72.83;100106.13;5015068;28;20348;-67
2021/10/18 01:06:04;;;;;;;2.07;1.40;;;;;;;3.83;73.76;100115.28;5014595;28;20110;-69
2021/10/18 01:08:30;;;;;;;3.17;1.70;;;;;;;3.60;73.73;100087.47;5016755;28;20041;-66
2021/10/18 01:10:55;;;;;;;3.17;1.47;;;;;;;3.59;74.14;100107.72;5016217;28;20037;-66
2021/10/18 01:13:21;;;;;;;2.47;1.60;;;;;;;3.59;74.06;100104.25;5015756;28;20096;-66
2021/10/18 01:15:46;;;;;;;4.33;1.53;;;;;;;3.68;73.70;100108.69;5014367;28;20037;-67
2021/10/18 01:18:12;;;;;;;3.13;1.33;;;;;;;3.80;73.61;100119.97;5014580;28;20033;-69
2021/10/18 01:20:39;;;;;;;2.70;1.43;;;;;;;3.83;73.39;100117.91;5014377;28;20524;-68
2021/10/18 01:23:06;;;;;;;2.43;1.50;;;;;;;3.98;73.08;100113.91;5014280;28;20037;-68
2021/10/18 01:25:32;;;;;;;1.90;1.10;;;;;;;3.97;73.98;100100.84;5014693;28;20257;-69
2021/10/18 01:27:57;;;;;;;3.43;1.53;;;;;;;3.95;72.64;100108.91;5016438;28;20360;-67
2021/10/18 01:30:24;;;;;;;3.17;1.70;;;;;;;3.83;73.08;100093.38;5015373;28;20550;-65
2021/10/18 01:32:50;;;;;;;2.87;2.00;;;;;;;3.82;73.29;100105.69;5017931;28;20060;-66
2021/10/18 01:35:16;;;;;;;3.40;1.80;;;;;;;3.77;73.43;100099.19;5016081;28;20288;-68
2021/10/18 01:37:42;;;;;;;2.30;1.30;;;;;;;3.79;73.00;100102.50;5015822;28;20038;-66
2021/10/18 01:40:10;;;;;;;4.50;1.33;;;;;;;3.85;73.09;100100.16;5016591;28;20276;-66
2021/10/18 01:42:36;;;;;;;4.35;1.30;;;;;;;3.77;73.46;100100.00;5014102;28;20129;-66
2021/10/18 01:45:07;;;;;;;1.90;1.63;;;;;;;3.39;72.71;100035.72;5013918;28;20050;-67
2021/10/18 01:47:32;;;;;;;4.63;1.43;;;;;;;3.72;73.21;100102.19;5014068;28;20822;-69
2021/10/18 01:49:57;;;;;;;4.57;2.63;;;;;;;3.68;73.71;100106.91;5014153;28;20272;-68
2021/10/18 01:52:23;;;;;;;2.17;1.97;;;;;;;3.57;73.73;100109.66;5014122;28;20065;-65
2021/10/18 01:54:49;;;;;;;3.97;1.73;;;;;;;3.50;74.55;100110.31;5013816;28;20584;-67
2021/10/18 01:57:15;;;;;;;4.73;2.00;;;;;;;3.38;75.09;100120.09;5013173;28;20069;-67
2021/10/18 01:59:41;;;;;;;3.33;2.07;;;;;;;3.22;75.78;100107.44;5012208;28;20315;-65
2021/10/18 02:02:06;;;;;;;4.90;2.30;;;;;;;3.22;76.33;100103.97;5014064;28;20508;-68
2021/10/18 02:04:32;;;;;;;4.20;1.87;;;;;;;3.00;75.76;100068.97;5013544;28;20038;-68
2021/10/18 02:06:57;;;;;;;3.23;2.00;;;;;;;3.28;75.69;100099.00;5013709;28;20033;-69
2021/10/18 02:09:23;;;;;;;5.90;1.90;;;;;;;3.26;75.93;100087.78;5015768;28;20038;-67
2021/10/18 02:11:49;;;;;;;3.83;2.17;;;;;;;3.36;75.57;100104.44;5018206;28;20038;-65
2021/10/18 02:14:14;;;;;;;2.17;1.70;;;;;;;3.31;76.13;100108.44;5019251;28;20033;-64
2021/10/18 02:16:40;;;;;;;2.90;2.33;;;;;;;3.28;75.55;100108.69;5017496;28;20600;-67
2021/10/18 02:19:05;;;;;;;3.73;2.00;;;;;;;3.20;75.69;100101.47;5016550;28;20052;-68
2021/10/18 02:21:31;;;;;;;3.10;2.07;;;;;;;3.11;75.91;100097.81;5015907;28;20092;-68
2021/10/18 02:23:56;;;;;;;4.30;1.80;;;;;;;3.16;76.11;100115.81;5015857;28;20436;-65
2021/10/18 02:26:21;;;;;;;5.50;1.70;;;;;;;3.22;75.98;100114.50;5015910;28;20485;-66
2021/10/18 02:28:47;;;;;;;2.93;1.63;;;;;;;3.30;75.96;100119.94;5016410;28;20045;-67
2021/10/18 02:31:12;;;;;;;3.77;1.90;;;;;;;3.31;75.87;100114.53;5017574;28;20117;-65
2021/10/18 02:33:37;;;;;;;3.50;2.10;;;;;;;3.43;75.53;100124.00;5016648;28;20042;-69
2021/10/18 02:36:03;;;;;;;2.93;1.57;;;;;;;3.34;76.34;100109.00;5014852;28;20064;-63
2021/10/18 02:38:29;;;;;;;3.60;1.30;;;;;;;3.43;76.09;100121.34;5015974;28;20123;-68
2021/10/18 02:40:54;;;;;;;2.77;1.70;;;;;;;3.47;77.12;100113.19;5015355;28;20127;-64
2021/10/18 02:43:20;;;;;;;5.93;2.13;;;;;;;3.30;76.39;100081.28;5013859;28;20045;-65
2021/10/18 02:45:48;;;;;;;3.13;1.57;;;;;;;3.52;75.96;100116.28;5014300;28;20042;-66
2021/10/18 02:48:14;;;;;;;2.30;1.20;;;;;;;3.51;76.70;100104.09;5014800;28;20257;-66
2021/10/18 02:50:39;;;;;;;2.80;1.20;;;;;;;3.31;76.89;100085.59;5014758;28;20302;-65
2021/10/18 02:53:06;;;;;;;1.57;1.40;;;;;;;3.41;76.28;100101.41;5015667;28;20456;-65
2021/10/18 02:55:31;;;;;;;3.10;1.70;;;;;;;3.41;76.62;100104.03;5015312;28;20077;-66
2021/10/18 02:57:57;;;;;;;3.80;1.57;;;;;;;3.44;76.74;100114.28;5011704;28;20299;-67
2021/10/18 03:00:22;;;;;;;2.00;1.70;;;;;;;3.35;77.40;100108.03;5012643;28;20040;-67
2021/10/18 03:02:48;;;;;;;1.93;1.43;;;;;;;3.38;76.97;100115.66;5012571;28;20080;-66
2021/10/18 03:05:13;;;;;;;3.90;1.47;;;;;;;3.38;77.27;100115.66;5011379;28;20087;-69
2021/10/18 03:07:38;;;;;;;3.87;2.20;;;;;;;3.35;77.13;100097.50;5012519;28;20090;-66
2021/10/18 03:10:05;;;;;;;3.43;1.97;;;;;;;3.49;77.52;100117.38;5011710;28;20089;-68
2021/10/18 03:12:32;;;;;;;2.63;1.57;;;;;;;3.50;77.36;100119.06;5012069;28;20038;-69
2021/10/18 03:14:59;;;;;;;2.50;1.70;;;;;;;3.42;77.11;100101.28;5012233;28;20303;-64
2021/10/18 03:17:24;;;;;;;3.00;1.70;;;;;;;3.46;77.59;100127.31;5012738;28;20268;-67
2021/10/18 03:19:50;;;;;;;4.20;1.40;;;;;;;3.46;77.35;100114.16;5012778;28;20271;-69
2021/10/18 03:22:15;;;;;;;3.60;1.73;;;;;;;3.44;77.19;100111.66;5012312;28;20029;-64
2021/10/18 03:24:40;;;;;;;1.47;1.37;;;;;;;3.36;77.33;100100.97;5012330;28;20036;-64
2021/10/18 03:27:06;;;;;;;2.67;1.40;;;;;;;3.36;77.62;100107.06;5012445;28;20128;-69
2021/10/18 03:29:31;;;;;;;5.43;1.60;;;;;;;3.45;77.64;100109.88;5012434;28;20044;-68
2021/10/18 03:31:56;;;;;;;2.30;1.53;;;;;;;3.39;77.32;100100.69;5012297;28;20045;-69
2021/10/18 03:34:22;;;;;;;1.70;1.47;;;;;;;3.43;77.29;100108.19;4995019;28;20045;-66
2021/10/18 03:36:47;;;;;;;2.10;1.40;;;;;;;3.52;77.48;100103.13;5012332;28;20037;-70
2021/10/18 03:39:13;;;;;;;1.37;1.27;;;;;;;3.39;77.75;100075.22;5012256;28;20038;-67
2021/10/18 03:41:38;;;;;;;2.37;1.80;;;;;;;3.56;77.04;100097.44;5012135;28;20107;-67
2021/10/18 03:44:04;;;;;;;2.97;1.03;;;;;;;3.59;77.38;100104.25;5012135;28;20508;-66
2021/10/18 03:46:29;;;;;;;2.40;1.50;;;;;;;3.63;77.73;100097.75;5012459;28;20124;-66
2021/10/18 03:48:54;;;;;;;1.83;1.30;;;;;;;3.52;77.68;100077.63;5012830;28;20136;-69
2021/10/18 03:51:20;;;;;;;1.80;1.37;;;;;;;3.50;78.92;100082.19;5012146;28;20554;-66
2021/10/18 03:53:45;;;;;;;3.17;1.50;;;;;;;3.60;78.67;100101.47;5012451;28;20037;-69
2021/10/18 03:56:11;;;;;;;1.60;1.30;;;;;;;3.49;78.65;100096.31;5010813;28;20512;-66
2021/10/18 03:58:36;;;;;;;1.27;1.00;;;;;;;3.52;79.80;100109.22;5012487;28;20037;-65
2021/10/18 04:01:06;;;;;;;2.50;1.40;;;;;;;3.60;79.48;100121.72;5012023;28;20132;-68
2021/10/18 04:03:31;;;;;;;4.50;1.73;;;;;;;3.55;79.12;100110.75;5012222;28;20034;-65
2021/10/18 04:05:57;;;;;;;3.03;1.27;;;;;;;3.51;79.55;100106.72;5012811;28;20391;-69
2021/10/18 04:08:24;;;;;;;2.57;1.37;;;;;;;3.42;80.06;100117.06;5012585;28;20353;-67
2021/10/18 04:10:50;;;;;;;2.90;1.20;;;;;;;3.36;80.06;100106.22;5011740;28;20038;-65
2021/10/18 04:13:15;;;;;;;1.87;1.33;;;;;;;3.37;80.24;100119.25;5010732;28;20280;-72
2021/10/18 04:15:40;;;;;;;3.20;1.63;;;;;;;3.41;80.72;100125.94;5011571;28;20045;-64
2021/10/18 04:18:06;;;;;;;1.53;1.33;;;;;;;3.48;80.80;100125.41;5011717;28;20052;-68
2021/10/18 04:20:31;;;;;;;3.43;1.40;;;;;;;3.42;80.16;100106.53;5012420;28;20495;-72
2021/10/18 04:22:56;;;;;;;3.30;1.60;;;;;;;3.33;80.71;100094.19;5015577;28;20504;-66
2021/10/18 04:25:22;;;;;;;2.90;2.17;;;;;;;3.49;79.45;100120.03;5014989;28;20030;-63
2021/10/18 04:27:47;;;;;;;1.43;1.30;;;;;;;3.49;79.63;100122.66;5015181;28;20037;-65
2021/10/18 04:30:12;;;;;;;1.30;1.20;;;;;;;3.49;79.84;100129.72;5014774;28;20084;-69
2021/10/18 04:32:38;;;;;;;3.23;1.10;;;;;;;3.50;79.87;100134.84;5015126;28;20065;-63
2021/10/18 04:35:04;;;;;;;2.27;1.30;;;;;;;3.57;79.46;100135.97;5015150;28;20087;-63
2021/10/18 04:37:29;;;;;;;1.67;1.10;;;;;;;3.60;78.38;100135.72;5015417;28;20053;-67
2021/10/18 04:39:55;;;;;;;1.00;0.90;;;;;;;3.65;76.69;100135.31;5015187;28;20132;-63
2021/10/18 04:42:20;;;;;;;2.27;1.77;;;;;;;3.63;75.15;100134.59;5013705;28;20037;-65
2021/10/18 04:44:45;;;;;;;1.20;1.10;;;;;;;3.66;73.96;100140.44;5015400;28;20087;-64
2021/10/18 04:47:11;;;;;;;1.97;1.30;;;;;;;3.71;74.07;100145.28;5017256;28;20038;-63
2021/10/18 04:49:36;;;;;;;2.83;0.90;;;;;;;3.76;74.42;100140.50;5019347;28;20052;-66
2021/10/18 04:52:02;;;;;;;1.37;0.93;;;;;;;3.81;74.62;100153.25;5019074;28;20117;-67
2021/10/18 04:54:27;;;;;;;1.27;1.03;;;;;;;3.72;74.76;100145.16;5020438;28;20030;-65
2021/10/18 04:56:52;;;;;;;6.27;3.53;;;;;;;3.69;75.66;100148.06;5020153;28;20536;-64
2021/10/18 04:59:18;;;;;;;5.50;2.43;;;;;;;3.78;75.62;100164.88;5019543;28;20073;-67
2021/10/18 05:01:43;;;;;;;1.60;1.50;;;;;;;3.78;75.14;100162.25;5020279;28;20065;-65
2021/10/18 05:04:08;;;;;;;2.10;1.20;;;;;;;3.81;75.23;100167.25;5019935;28;20413;-66
2021/10/18 05:06:34;;;;;;;1.43;1.10;;;;;;;3.81;75.07;100172.53;5019799;28;20049;-67
2021/10/18 05:08:59;;;;;;;1.30;1.20;;;;;;;3.72;75.33;100168.03;5019673;28;20833;-65
2021/10/18 05:11:24;;;;;;;1.63;1.53;;;;;;;3.77;74.58;100179.03;5019100;28;20045;-63
2021/10/18 05:13:50;;;;;;;1.57;1.00;;;;;;;3.76;74.97;100172.09;5018881;28;20117;-66
2021/10/18 05:16:15;;;;;;;2.17;1.30;;;;;;;3.75;73.92;100173.03;5020189;28;20037;-64
2021/10/18 05:18:41;;;;;;;1.70;1.10;;;;;;;3.69;73.02;100181.47;5018299;28;20084;-68
2021/10/18 05:21:06;;;;;;;1.10;1.00;;;;;;;3.39;72.56;100143.66;5018748;28;20033;-65
2021/10/18 05:23:35;;;;;;;1.37;1.07;;;;;;;3.65;74.09;100186.16;5018543;28;20033;-66
2021/10/18 05:26:03;;;;;;;1.40;1.30;;;;;;;3.74;72.90;100184.53;5016137;28;20036;-64
2021/10/18 05:28:28;;;;;;;1.65;1.55;;;;;;;3.82;73.05;100183.88;5018186;28;20165;-64
2021/10/18 05:30:54;;;;;;;1.13;1.03;;;;;;;3.77;73.21;100172.94;5016875;28;20053;-64
2021/10/18 05:33:19;;;;;;;1.20;1.10;;;;;;;3.82;72.42;100183.88;5015070;28;20578;-68
2021/10/18 05:35:46;;;;;;;3.57;1.30;;;;;;;3.82;72.32;100187.34;5012584;28;20041;-69
2021/10/18 05:38:16;;;;;;;2.50;1.13;;;;;;;3.71;72.36;100184.78;5014683;28;20504;-66
2021/10/18 05:40:41;;;;;;;1.50;1.23;;;;;;;3.60;72.22;100180.47;5015222;28;20272;-63
2021/10/18 05:43:07;;;;;;;1.30;1.20;;;;;;;3.75;72.20;100212.53;5014568;28;20269;-67
2021/10/18 05:45:34;;;;;;;1.17;1.07;;;;;;;3.77;72.74;100215.91;5013843;28;20048;-62
2021/10/18 05:48:02;;;;;;;1.27;1.17;;;;;;;3.71;71.66;100226.94;5014045;28;20046;-66
2021/10/18 05:50:33;;;;;;;1.55;1.30;;;;;;;3.66;71.96;100218.59;5013700;28;20269;-62
2021/10/18 05:52:59;;;;;;;1.57;1.10;;;;;;;3.69;72.75;100223.59;5012050;28;20129;-63
2021/10/18 05:55:24;;;;;;;2.70;1.40;;;;;;;3.74;72.48;100221.41;5015017;28;20327;-64
2021/10/18 05:57:56;;;;;;;2.93;1.50;;;;;;;3.78;72.35;100222.00;5014436;28;20052;-64
2021/10/18 06:00:22;;;;;;;1.53;1.20;;;;;;;3.78;72.50;100211.47;5013684;28;20038;-64
2021/10/18 06:02:48;;;;;;;1.30;1.20;;;;;;;3.80;71.93;100218.25;5012480;28;20320;-61
2021/10/18 06:05:14;;;;;;;3.17;1.30;;;;;;;3.90;72.00;100227.03;5013616;28;20269;-60
2021/10/18 06:07:40;;;;;;;1.63;1.50;;;;;;;3.89;72.34;100220.09;5012304;28;20343;-62
2021/10/18 06:10:08;;;;;;;2.70;1.40;;;;;;;3.92;72.77;100235.63;5015142;28;20378;-66
2021/10/18 06:12:34;;;;;;;2.65;1.40;;;;;;;3.93;71.44;100232.03;5016427;28;20378;-66
2021/10/18 06:14:59;;;;;;;2.60;1.33;;;;;;;3.92;72.02;100229.53;5012806;28;20050;-63
2021/10/18 06:17:25;;;;;;;1.97;1.20;;;;;;;3.99;71.89;100236.75;5014616;28;20077;-63
2021/10/18 06:19:50;;;;;;;2.77;1.77;;;;;;;3.91;72.74;100228.69;5014144;28;20062;-64
2021/10/18 06:22:16;;;;;;;3.90;1.97;;;;;;;3.99;72.05;100242.03;5012788;28;20038;-64
2021/10/18 06:24:41;;;;;;;2.90;1.37;;;;;;;4.09;71.90;100251.78;5013066;28;20045;-65
2021/10/18 06:27:07;;;;;;;3.00;1.80;;;;;;;4.10;72.00;100240.28;5015593;28;20063;-64
2021/10/18 06:29:32;;;;;;;1.90;1.80;;;;;;;4.17;72.09;100250.16;5014557;28;20037;-65
2021/10/18 06:31:57;;;;;;;3.77;1.70;;;;;;;4.21;71.93;100242.81;5015444;28;20048;-65
2021/10/18 06:34:23;;;;;;;3.07;1.30;;;;;;;4.19;71.17;100231.56;5013116;28;20038;-62
2021/10/18 06:36:48;;;;;;;2.53;1.80;;;;;;;4.24;70.94;100250.44;5013599;28;20053;-64
2021/10/18 06:39:23;;;;;;;1.53;1.43;;;;;;;4.28;71.60;100252.66;5013868;28;20080;-69
2021/10/18 06:41:49;;;;;;;5.17;1.50;;;;;;;4.27;71.00;100258.91;5005742;28;20130;-63
2021/10/18 06:44:14;;;;;;;2.90;1.60;;;;;;;4.29;71.78;100258.78;5011619;28;20351;-68
2021/10/18 06:46:39;;;;;;;3.50;1.60;;;;;;;4.31;71.55;100252.41;5014254;28;20067;-69
2021/10/18 06:49:05;;;;;;;1.97;1.80;;;;;;;4.32;71.29;100253.22;5013097;28;20112;-66
2021/10/18 06:51:37;;;;;;;3.37;1.50;;;;;;;4.34;71.55;100265.34;5011537;28;20084;-68
2021/10/18 06:54:03;;;;;;;7.00;1.90;;;;;;;4.43;71.93;100265.47;5014208;28;20062;-70
2021/10/18 06:56:29;;;;;;;1.50;1.40;;;;;;;4.44;71.43;100270.63;5012068;28;20771;-69
2021/10/18 06:58:54;;;;;;;1.60;1.50;;;;;;;4.46;71.80;100273.13;5013095;28;20273;-70
2021/10/18 07:01:20;;;;;;;3.57;1.90;;;;;;;4.40;71.75;100266.59;5014327;28;20064;-64
2021/10/18 07:03:45;;;;;;;3.27;1.43;;;;;;;4.50;71.81;100285.06;5013334;28;20536;-64
2021/10/18 07:06:10;;;;;;;2.43;1.40;;;;;;;4.40;71.97;100256.03;5013854;28;20075;-66
2021/10/18 07:08:36;;;;;;;4.87;1.70;;;;;;;4.51;72.23;100278.81;5013276;28;20042;-67
2021/10/18 07:11:01;;;;;;;1.50;1.40;;;;;;;4.46;72.28;100276.59;5014695;28;20498;-62
2021/10/18 07:13:29;;;;;;;3.37;2.50;;;;;;;4.49;72.58;100284.22;5013905;28;20030;-63
2021/10/18 07:15:55;;;;;;;6.30;2.22;;;;;;;4.57;72.21;100300.19;5007345;28;20493;-66
2021/10/18 07:18:20;;;;;;;1.50;1.40;;;;;;;4.58;72.33;100299.22;5012679;28;20041;-65
2021/10/18 07:20:46;;;;;;;2.47;1.90;;;;;;;4.58;73.41;100296.59;5011905;28;20046;-62
2021/10/18 07:23:12;;;;;;;3.10;2.10;;;;;;;4.50;72.81;100288.53;5012205;28;20041;-65
2021/10/18 07:25:41;;;;;;;6.00;1.63;;;;;;;4.47;73.07;100312.53;5011630;28;20029;-64
2021/10/18 07:28:07;;;;;;;1.60;1.30;;;;;;;4.40;73.83;100314.06;5012029;28;20633;-62
2021/10/18 07:30:34;;;;;;;1.53;1.37;;;;;;;4.41;74.24;100313.06;5012222;28;20297;-66
2021/10/18 07:33:00;;;;;;;1.70;1.30;;;;;;;4.42;73.80;100312.09;5010679;28;20276;-66
2021/10/18 07:35:32;;;;;;;5.70;2.83;;;;;;;4.52;73.63;100323.50;5012309;28;20304;-65
2021/10/18 07:37:59;;;;;;;3.30;2.10;;;;;;;4.49;74.33;100309.75;5009626;28;20033;-64
2021/10/18 07:40:24;;;;;;;3.97;1.80;;;;;;;4.61;73.77;100329.78;5011740;28;20281;-66
2021/10/18 07:42:50;;;;;;;1.50;1.40;;;;;;;4.49;72.85;100318.50;5011502;28;20283;-66
2021/10/18 07:45:16;;;;;;;1.57;1.47;;;;;;;4.53;72.93;100329.63;5011726;28;20033;-71
2021/10/18 07:47:43;;;;;;;3.50;1.80;;;;;;;4.69;72.43;100334.41;5011206;28;20412;-65
2021/10/18 07:50:10;;;;;;;3.90;1.80;;;;;;;4.73;72.33;100333.16;5011815;28;20048;-66
2021/10/18 07:52:37;;;;;;;3.93;1.70;;;;;;;4.62;72.57;100334.06;5011537;28;20276;-65
2021/10/18 07:55:05;;;;;;;2.43;1.60;;;;;;;4.65;71.55;100339.94;5009676;28;20277;-67
2021/10/18 07:57:31;;;;;;;1.70;1.60;;;;;;;4.76;72.09;100332.88;5011061;28;20277;-66
2021/10/18 07:59:58;;;;;;;1.50;1.40;;;;;;;4.85;71.13;100340.81;5013463;28;20331;-70
2021/10/18 08:02:25;;;;;;;4.23;1.60;;;;;;;4.95;71.94;100351.41;5015042;28;20050;-65
2021/10/18 08:04:50;;;;;;;1.37;1.27;;;;;;;4.99;70.80;100334.31;5012599;28;20701;-66
2021/10/18 08:07:16;;;;;;;2.43;1.50;;;;;;;5.06;70.86;100335.44;5015352;28;20818;-67
2021/10/18 08:09:41;;;;;;;11.87;2.00;;;;;;;5.15;70.69;100346.94;5015323;28;20089;-64
2021/10/18 08:12:07;;;;;;;3.13;1.67;;;;;;;5.16;70.88;100349.44;5015139;28;20029;-65
2021/10/18 08:14:32;;;;;;;1.50;1.40;;;;;;;5.04;70.67;100325.97;5014873;28;20433;-68
2021/10/18 08:17:04;;;;;;;5.23;1.63;;;;;;;5.22;70.17;100346.28;5014936;28;20045;-62
2021/10/18 08:19:30;;;;;;;2.33;1.40;;;;;;;5.23;70.57;100350.59;5009652;28;20038;-65
2021/10/18 08:21:56;;;;;;;1.93;1.50;;;;;;;5.19;70.95;100343.91;5014739;28;20740;-65
2021/10/18 08:24:21;;;;;;;1.90;1.23;;;;;;;5.31;69.75;100356.97;5014580;28;20280;-65
2021/10/18 08:26:47;;;;;;;5.03;1.70;;;;;;;5.23;69.98;100357.69;5014677;28;20496;-66
2021/10/18 08:29:12;;;;;;;3.77;1.33;;;;;;;5.12;70.86;100349.88;5014333;28;20141;-74
2021/10/18 08:31:37;;;;;;;1.50;1.10;;;;;;;5.15;70.82;100363.63;5014558;28;20088;-66
2021/10/18 08:34:03;;;;;;;1.47;1.20;;;;;;;4.96;70.45;100348.63;5014436;28;20040;-65
2021/10/18 08:36:28;;;;;;;1.23;1.10;;;;;;;4.98;71.47;100369.59;5014491;28;20037;-66
2021/10/18 08:39:54;;;;;;;1.50;1.13;;;;;;;4.98;71.54;100364.31;5014683;28;20034;-68
2021/10/18 08:41:41;;;;;;;1.33;1.23;;;;;;;5.07;71.54;100381.13;5013035;28;20041;-69
2021/10/18 08:44:16;;;;;;;2.93;1.30;;;;;;;4.84;71.49;100346.22;5012331;28;20281;-65
2021/10/18 08:46:46;;;;;;;2.27;1.33;;;;;;;5.07;70.87;100366.13;5010704;28;20268;-66
2021/10/18 08:49:11;;;;;;;3.43;1.43;;;;;;;5.16;71.17;100370.56;5014268;28;20272;-63
2021/10/18 08:51:36;;;;;;;1.73;1.37;;;;;;;5.21;70.58;100384.22;5014209;28;20276;-67
2021/10/18 08:54:04;;;;;;;2.23;1.30;;;;;;;5.17;70.79;100388.06;5011849;28;20040;-63
2021/10/18 08:56:30;;;;;;;7.03;3.23;;;;;;;5.14;70.33;100377.78;5005836;28;20523;-63
2021/10/18 08:58:55;;;;;;;3.03;2.50;;;;;;;5.13;70.66;100368.22;5013534;28;20277;-67
2021/10/18 09:01:42;;;;;;;2.67;1.57;;;;;;;5.23;71.08;100381.44;5014200;28;20054;-67
2021/10/18 09:04:28;;;;;;;3.27;1.60;;;;;;;5.34;71.13;100393.66;5012289;28;20033;-66
2021/10/18 09:07:01;;;;;;;1.20;1.10;;;;;;;5.31;71.24;100396.59;5008804;28;20261;-69
2021/10/18 09:09:30;;;;;;;1.47;1.30;;;;;;;5.28;72.12;100416.19;5014384;28;20744;-64
2021/10/18 09:11:59;;;;;;;1.02;1.00;;;;;;;5.21;72.10;100400.06;5013997;28;20265;-68
2021/10/18 09:14:27;;;;;;;2.57;1.53;;;;;;;5.25;71.96;100400.63;5014097;28;20038;-69
2021/10/18 09:16:52;;;;;;;4.00;1.83;;;;;;;5.31;72.01;100410.63;5014042;28;20046;-67
2021/10/18 09:19:25;;;;;;;3.57;1.40;;;;;;;5.41;72.68;100405.34;5013576;28;20257;-71
2021/10/18 09:22:07;;;;;;;1.30;1.10;;;;;;;5.55;71.40;100415.50;5011974;28;20037;-68
2021/10/18 09:24:39;;;;;;;2.03;1.20;;;;;;;5.62;70.86;100421.06;5012800;28;20795;-67
2021/10/18 09:27:09;;;;;;;1.57;1.33;;;;;;;5.60;70.42;100426.50;5012293;28;20041;-64
2021/10/18 09:29:49;;;;;;;4.57;2.80;;;;;;;5.42;70.97;100399.09;5014002;28;20747;-68
2021/10/18 09:32:17;;;;;;;1.97;1.80;;;;;;;5.52;70.76;100419.25;5013292;28;20400;-71
2021/10/18 09:34:42;;;;;;;1.38;1.02;;;;;;;5.52;70.57;100427.19;5014973;28;20064;-70
2021/10/18 09:37:11;;;;;;;1.60;1.30;;;;;;;5.57;70.86;100432.88;5013863;28;20405;-66
2021/10/18 09:39:42;;;;;;;1.30;1.20;;;;;;;5.73;69.90;100440.25;5012591;28;20509;-62
2021/10/18 09:42:18;;;;;;;4.50;1.43;;;;;;;5.77;69.94;100443.44;5012034;28;20026;-66
2021/10/18 10:51:53;;;;;;;4.80;2.13;;;;;;;6.25;67.45;100517.47;5013536;28;20127;-67
2021/10/18 10:54:39;;;;;;;3.20;1.27;;;;;;;6.18;67.83;100500.50;5012761;28;20378;-66
2021/10/18 10:57:11;;;;;;;2.63;1.97;;;;;;;6.15;67.92;100501.63;5011189;28;20417;-66
2021/10/18 10:59:53;;;;;;;4.83;2.60;;;;;;;5.96;68.44;100463.78;5012961;28;20053;-68
2021/10/18 11:02:32;;;;;;;6.20;2.47;;;;;;;6.19;67.14;100502.19;5011362;28;20148;-67
2021/10/18 11:04:58;;;;;;;2.67;2.37;;;;;;;6.32;67.74;100518.56;5013291;28;20034;-68
2021/10/18 11:07:53;;;;;;;2.77;1.30;;;;;;;6.56;65.79;100525.22;5012226;28;20040;-66
2021/10/18 11:10:21;;;;;;;3.10;1.10;;;;;;;6.74;64.66;100528.81;5006581;28;20520;-70
2021/10/18 11:12:50;;;;;;;2.22;1.17;;;;;;;6.75;64.27;100519.91;5012577;28;20117;-70
2021/10/18 11:15:16;;;;;;;;;;;;;;;6.78;64.35;100527.53;5012302;28;20042;-68
2021/10/18 11:17:45;;;;;;;4.40;1.63;;;;;;;6.67;65.01;100530.38;5012026;28;20412;-73
2021/10/18 11:20:14;;;;;;;3.73;1.50;;;;;;;6.52;66.21;100538.75;5011696;28;20069;-72
2021/10/18 11:22:45;;;;;;;2.25;1.00;;;;;;;6.43;65.41;100542.25;5012193;28;20046;-67
2021/10/18 11:25:18;;;;;;;1.67;1.30;;;;;;;6.21;66.30;100542.53;5012190;28;20512;-69
2021/10/18 11:27:58;;;;;;;1.87;1.47;;;;;;;6.25;66.55;100549.22;5011140;28;20040;-66
2021/10/18 11:30:26;;;;;;;2.17;1.67;;;;;;;6.22;67.31;100558.25;5011506;28;20045;-64
2021/10/18 11:33:01;;;;;;;3.00;1.90;;;;;;;6.30;67.48;100552.25;5011197;28;20033;-67
2021/10/18 11:35:28;;;;;;;2.83;1.87;;;;;;;6.36;67.26;100549.06;5012173;28;20038;-68
2021/10/18 11:38:09;;;;;;;4.97;2.50;;;;;;;6.40;67.39;100550.47;5011859;28;20045;-69
2021/10/18 11:40:48;;;;;;;7.43;1.77;;;;;;;6.43;66.81;100558.13;5012276;28;20045;-69
2021/10/18 11:43:34;;;;;;;5.07;1.80;;;;;;;6.38;66.41;100557.72;5011882;28;20489;-69
2021/10/18 11:45:59;;;;;;;4.80;1.93;;;;;;;6.29;67.38;100558.53;5012258;28;20034;-69
2021/10/18 11:48:29;;;;;;;2.00;1.60;;;;;;;6.31;67.24;100568.97;5011427;28;20492;-69
2021/10/18 11:50:58;;;;;;;3.03;2.33;;;;;;;6.36;67.59;100577.31;5012247;28;20026;-69
2021/10/18 11:53:33;;;;;;;2.40;1.50;;;;;;;6.37;67.00;100594.88;5011367;28;20124;-64
2021/10/18 11:56:20;;;;;;;5.00;1.77;;;;;;;6.22;67.71;100584.69;5011919;28;20037;-70
2021/10/18 11:58:45;;;;;;;3.67;1.57;;;;;;;6.02;68.08;100574.25;5012536;28;20474;-66
2021/10/18 12:01:18;;;;;;;3.70;1.70;;;;;;;6.14;68.36;100602.25;5011903;28;20103;-69
2021/10/18 12:03:44;;;;;;;1.87;1.40;;;;;;;6.08;68.50;100592.22;5011671;28;20049;-67
2021/10/18 12:06:11;;;;;;;3.73;2.00;;;;;;;5.97;68.96;100581.75;5011985;28;20072;-67
2021/10/18 12:08:39;;;;;;;1.60;1.40;;;;;;;6.01;69.05;100607.78;5011697;28;20034;-70
2021/10/18 12:11:07;;;;;;;2.53;2.00;;;;;;;6.09;68.44;100618.53;5012078;28;20034;-70
2021/10/18 12:13:36;;;;;;;2.72;1.88;;;;;;;6.06;66.95;100610.00;5011291;28;20034;-73
2021/10/18 12:16:08;;;;;;;;;;;;;;;6.12;66.54;100615.59;5012095;28;20042;-67
2021/10/18 12:19:00;;;;;;;2.33;1.47;;;;;;;6.19;66.42;100623.81;5012282;28;20018;-70
2021/10/18 12:21:26;;;;;;;7.07;2.00;;;;;;;6.16;65.92;100618.81;5010307;28;20050;-69
2021/10/18 12:23:59;;;;;;;3.30;2.40;;;;;;;5.89;65.61;100570.06;5011231;28;20404;-71
2021/10/18 12:26:27;;;;;;;2.07;1.57;;;;;;;6.41;66.50;100625.38;5012203;28;20045;-69
2021/10/18 12:28:57;;;;;;;2.42;1.45;;;;;;;6.46;64.97;100626.63;5011105;28;20045;-72
2021/10/18 12:31:32;;;;;;;3.40;1.27;;;;;;;6.51;65.25;100623.53;5013404;28;20044;-75
2021/10/18 12:34:04;;;;;;;1.60;1.13;;;;;;;6.53;64.81;100622.44;5012776;28;20037;-72
2021/10/18 12:36:30;;;;;;;1.67;1.20;;;;;;;6.53;65.02;100625.06;5012485;28;20068;-71
2021/10/18 12:38:57;;;;;;;2.40;1.50;;;;;;;6.51;65.30;100624.38;5013044;28;20556;-77
2021/10/18 12:41:23;;;;;;;2.57;1.00;;;;;;;6.46;65.66;100616.03;5013415;28;20408;-76